Pinebluff, North Carolina
Current Conditions -  °F | °C
As of 10:56 PM on Friday 19 Dec 2014 (Local Time) from KHFF Reporting Station
Broken Clouds Broken Clouds  
Wind Chill:   Ceiling: 20000
Heat Index:   Visibility: 10mi
Dew Point:   Wind: 1mph
Humidity: 97%   Direction: NA
Pressure: 30.2"   Gusts: NA
Location:  35.11°N, 79.47°W
Report Text: KHFF 200356Z AUTO VRB01KT 10SM BKN200 02/02 A3020 RMK AO2 SLP231 T00210016
Loading
Personal Weather Stations






























Interactive Weather Map New forecast layout! Learn more

10-Day Weather Forecast

Advertisements
Track Severe Weather on mobile